createdAt,value
2018-02-27T00:02:10.288Z,-8.70
2018-02-27T00:04:39.108Z,-8.70
2018-02-27T00:07:07.921Z,-8.70
2018-02-27T00:09:35.949Z,-8.80
2018-02-27T00:12:04.009Z,-8.80
2018-02-27T00:14:32.061Z,-8.80
2018-02-27T00:17:00.097Z,-8.80
2018-02-27T00:19:28.159Z,-8.90
2018-02-27T00:21:56.225Z,-8.90
2018-02-27T00:24:24.248Z,-8.90
2018-02-27T00:26:52.304Z,-8.90
2018-02-27T00:29:20.337Z,-9.00
2018-02-27T00:31:48.384Z,-9.10
2018-02-27T00:34:16.436Z,-8.90
2018-02-27T00:36:48.925Z,-9.00
2018-02-27T00:39:16.981Z,-9.00
2018-02-27T00:41:45.073Z,-9.10
2018-02-27T00:44:13.893Z,-9.10
2018-02-27T00:46:41.942Z,-9.20
2018-02-27T00:49:09.973Z,-9.20
2018-02-27T00:51:38.032Z,-9.20
2018-02-27T00:54:06.852Z,-9.30
2018-02-27T00:56:34.901Z,-9.30
2018-02-27T00:59:02.969Z,-9.30
2018-02-27T01:01:31.013Z,-9.20
2018-02-27T01:03:59.065Z,-9.10
2018-02-27T01:06:27.884Z,-9.20
2018-02-27T01:08:55.932Z,-9.30
2018-02-27T01:11:23.996Z,-9.30
2018-02-27T01:13:52.047Z,-9.30
2018-02-27T01:16:20.081Z,-9.50
2018-02-27T01:18:48.132Z,-9.40
2018-02-27T01:21:16.184Z,-9.40
2018-02-27T01:23:44.216Z,-9.30
2018-02-27T01:26:12.265Z,-9.40
2018-02-27T01:28:40.333Z,-9.30
2018-02-27T01:31:09.134Z,-9.50
2018-02-27T01:33:37.980Z,-9.50
2018-02-27T01:36:06.034Z,-9.50
2018-02-27T01:38:34.061Z,-9.40
2018-02-27T01:41:02.126Z,-9.50
2018-02-27T01:43:30.117Z,-9.50
2018-02-27T01:45:58.111Z,-9.50
2018-02-27T01:48:26.112Z,-9.50
2018-02-27T01:51:06.912Z,-9.50
2018-02-27T01:53:34.904Z,-9.60
2018-02-27T01:56:02.916Z,-9.50
2018-02-27T01:58:30.904Z,-9.60
2018-02-27T02:00:58.903Z,-9.70
2018-02-27T02:03:26.906Z,-9.70
2018-02-27T02:05:55.685Z,-9.70
2018-02-27T02:08:23.688Z,-9.80
2018-02-27T02:10:52.440Z,-9.70
2018-02-27T02:13:20.444Z,-9.70
2018-02-27T02:15:48.885Z,-9.70
2018-02-27T02:18:16.892Z,-9.70
2018-02-27T02:20:44.892Z,-9.80
2018-02-27T02:23:12.916Z,-9.70
2018-02-27T02:25:42.476Z,-9.70
2018-02-27T02:28:10.479Z,-9.80
2018-02-27T02:30:38.465Z,-9.70
2018-02-27T02:33:06.474Z,-9.70
2018-02-27T02:35:34.489Z,-9.80
2018-02-27T02:38:02.503Z,-9.80
2018-02-27T02:40:30.484Z,-9.90
2018-02-27T02:42:58.477Z,-9.80
2018-02-27T02:45:26.485Z,-9.90
2018-02-27T02:47:55.243Z,-9.90
2018-02-27T02:50:23.260Z,-9.90
2018-02-27T02:52:51.244Z,-9.90
2018-02-27T02:55:19.257Z,-10.00
2018-02-27T02:57:47.264Z,-9.90
2018-02-27T03:00:15.258Z,-9.90
2018-02-27T03:02:43.265Z,-9.80
2018-02-27T03:05:11.276Z,-9.90
2018-02-27T03:07:40.048Z,-10.00
2018-02-27T03:10:08.041Z,-10.00
2018-02-27T03:12:36.040Z,-9.90
2018-02-27T03:15:04.801Z,-10.00
2018-02-27T03:17:32.808Z,-10.10
2018-02-27T03:20:00.889Z,-10.00
2018-02-27T03:22:28.888Z,-10.00
2018-02-27T03:24:57.668Z,-10.10
2018-02-27T03:27:25.661Z,-10.20
2018-02-27T03:29:53.657Z,-10.00
2018-02-27T03:32:22.428Z,-10.10
2018-02-27T03:34:50.444Z,-10.20
2018-02-27T03:37:19.192Z,-10.20
2018-02-27T03:39:47.204Z,-10.30
2018-02-27T03:42:15.204Z,-10.30
2018-02-27T03:44:43.981Z,-10.30
2018-02-27T03:47:11.996Z,-10.30
2018-02-27T03:49:39.988Z,-10.20
2018-02-27T03:52:08.030Z,-10.30
2018-02-27T03:54:36.025Z,-10.30
2018-02-27T03:57:04.024Z,-10.30
2018-02-27T03:59:32.033Z,-10.50
2018-02-27T04:02:00.042Z,-10.40
2018-02-27T04:04:28.856Z,-10.50
2018-02-27T04:06:56.850Z,-10.60
2018-02-27T04:09:26.365Z,-10.60
2018-02-27T04:11:54.361Z,-10.60
2018-02-27T04:14:23.136Z,-10.70
2018-02-27T04:16:51.740Z,-10.70
2018-02-27T04:19:19.731Z,-10.70
2018-02-27T04:21:47.755Z,-10.80
2018-02-27T04:24:15.753Z,-10.70
2018-02-27T04:26:43.764Z,-10.70
2018-02-27T04:29:12.534Z,-10.60
2018-02-27T04:31:40.531Z,-10.70
2018-02-27T04:34:09.112Z,-10.70
2018-02-27T04:36:37.124Z,-10.70
2018-02-27T04:39:05.119Z,-10.70
2018-02-27T04:41:33.128Z,-10.70
2018-02-27T04:44:01.893Z,-10.70
2018-02-27T04:46:29.909Z,-10.80
2018-02-27T04:48:58.666Z,-10.70
2018-02-27T04:51:26.667Z,-10.80
2018-02-27T04:53:54.689Z,-10.70
2018-02-27T04:56:22.677Z,-10.70
2018-02-27T04:58:50.680Z,-10.90
2018-02-27T05:01:18.672Z,-10.90
2018-02-27T05:03:46.680Z,-10.80
2018-02-27T05:06:14.944Z,-10.80
2018-02-27T05:08:42.932Z,-10.70
2018-02-27T05:11:10.945Z,-10.80
2018-02-27T05:13:39.700Z,-10.90
2018-02-27T05:16:08.580Z,-11.00
2018-02-27T05:18:37.004Z,-10.80
2018-02-27T05:21:05.004Z,-10.90
2018-02-27T05:23:33.770Z,-10.90
2018-02-27T05:26:01.781Z,-11.00
2018-02-27T05:28:29.792Z,-11.00
2018-02-27T05:30:58.586Z,-11.10
2018-02-27T05:33:26.604Z,-11.10
2018-02-27T05:35:54.608Z,-11.10
2018-02-27T05:38:22.652Z,-11.00
2018-02-27T05:40:51.412Z,-11.00
2018-02-27T05:43:19.415Z,-11.10
2018-02-27T05:45:47.412Z,-11.00
2018-02-27T05:48:16.225Z,-11.10
2018-02-27T05:50:44.988Z,-11.00
2018-02-27T05:53:12.996Z,-11.10
2018-02-27T05:55:41.752Z,-11.00
2018-02-27T05:58:10.528Z,-11.10
2018-02-27T06:00:38.540Z,-11.10
2018-02-27T06:03:06.532Z,-11.20
2018-02-27T06:05:34.539Z,-11.20
2018-02-27T06:08:02.528Z,-11.20
2018-02-27T06:10:31.304Z,-11.20
2018-02-27T06:12:59.308Z,-11.30
2018-02-27T06:15:28.097Z,-11.30
2018-02-27T06:17:56.083Z,-11.40
2018-02-27T06:20:24.093Z,-11.50
2018-02-27T06:22:52.103Z,-11.40
2018-02-27T06:25:20.116Z,-11.30
2018-02-27T06:27:48.132Z,-11.30
2018-02-27T06:30:16.893Z,-11.30
2018-02-27T06:32:44.892Z,-11.40
2018-02-27T06:35:12.884Z,-11.20
2018-02-27T06:37:40.891Z,-11.20
2018-02-27T06:40:08.899Z,-11.30
2018-02-27T06:42:36.888Z,-11.30
2018-02-27T06:45:05.388Z,-11.20
2018-02-27T06:47:33.388Z,-11.10
2018-02-27T06:50:01.397Z,-11.00
2018-02-27T06:52:30.161Z,-11.00
2018-02-27T06:54:58.163Z,-11.10
2018-02-27T06:57:26.187Z,-11.20
2018-02-27T06:59:54.185Z,-11.00
2018-02-27T07:02:22.195Z,-10.80
2018-02-27T07:04:50.192Z,-10.80
2018-02-27T07:07:18.216Z,-10.70
2018-02-27T07:09:46.211Z,-10.70
2018-02-27T07:12:15.020Z,-10.70
2018-02-27T07:14:43.007Z,-10.70
2018-02-27T07:17:11.572Z,-10.70
2018-02-27T07:19:39.571Z,-10.60
2018-02-27T07:22:07.564Z,-10.70
2018-02-27T07:24:35.580Z,-10.60
2018-02-27T07:27:03.587Z,-10.70
2018-02-27T07:29:32.344Z,-10.40
2018-02-27T07:32:00.361Z,-10.50
2018-02-27T07:34:28.357Z,-10.30
2018-02-27T07:36:57.124Z,-9.80
2018-02-27T07:39:25.133Z,-10.50
2018-02-27T07:41:53.908Z,-10.30
2018-02-27T07:44:21.916Z,-10.30
2018-02-27T07:46:50.688Z,-10.20
2018-02-27T07:49:18.699Z,-10.30
2018-02-27T07:51:47.460Z,-10.40
2018-02-27T07:54:15.468Z,-10.50
2018-02-27T07:56:44.497Z,-10.50
2018-02-27T07:59:13.263Z,-10.30
2018-02-27T08:01:41.276Z,-10.40
2018-02-27T08:04:10.053Z,-10.10
2018-02-27T08:06:38.052Z,-10.20
2018-02-27T08:09:06.469Z,-10.20
2018-02-27T08:11:34.464Z,-10.20
2018-02-27T08:14:02.480Z,-10.20
2018-02-27T08:16:30.497Z,-10.20
2018-02-27T08:18:59.268Z,-10.00
2018-02-27T08:21:27.284Z,-10.00
2018-02-27T08:23:56.048Z,-9.60
2018-02-27T08:26:24.056Z,-9.60
2018-02-27T08:28:52.072Z,-9.20
2018-02-27T08:31:20.057Z,-9.00
2018-02-27T08:33:48.057Z,-9.30
2018-02-27T08:36:16.049Z,-9.30
2018-02-27T08:38:44.060Z,-9.30
2018-02-27T08:41:12.036Z,-9.60
2018-02-27T08:43:40.036Z,-9.50
2018-02-27T08:46:08.812Z,-9.30
2018-02-27T08:48:36.808Z,-9.30
2018-02-27T08:51:04.813Z,-9.40
2018-02-27T08:53:33.600Z,-9.20
2018-02-27T08:56:01.605Z,-9.30
2018-02-27T08:58:30.377Z,-9.00
2018-02-27T09:00:58.372Z,-9.10
2018-02-27T09:03:27.164Z,-8.90
2018-02-27T09:05:56.065Z,-9.00
2018-02-27T09:08:24.069Z,-8.80
2018-02-27T09:10:52.816Z,-8.70
2018-02-27T09:13:20.830Z,-8.80
2018-02-27T09:15:48.828Z,-8.70
2018-02-27T09:18:17.592Z,-8.30
2018-02-27T09:20:45.596Z,-8.40
2018-02-27T09:23:13.584Z,-8.30
2018-02-27T09:25:41.588Z,-8.30
2018-02-27T09:28:09.598Z,-8.10
2018-02-27T09:30:37.584Z,-8.00
2018-02-27T09:33:05.599Z,-8.20
2018-02-27T09:35:33.612Z,-8.20
2018-02-27T09:38:02.396Z,-8.00
2018-02-27T09:40:30.391Z,-8.10
2018-02-27T09:42:59.152Z,-7.70
2018-02-27T09:45:27.164Z,-7.70
2018-02-27T09:47:55.152Z,-7.50
2018-02-27T09:50:23.929Z,-7.50
2018-02-27T09:52:51.928Z,-7.60
2018-02-27T09:55:19.916Z,-7.40
2018-02-27T09:57:48.715Z,-7.10
2018-02-27T10:00:17.489Z,-7.10
2018-02-27T10:02:45.487Z,-7.10
2018-02-27T10:05:13.487Z,-7.10
2018-02-27T10:07:42.240Z,-7.30
2018-02-27T10:10:10.244Z,-7.30
2018-02-27T10:12:39.755Z,-7.10
2018-02-27T10:15:09.245Z,-7.10
2018-02-27T10:17:37.240Z,-7.00
2018-02-27T10:20:05.233Z,-6.70
2018-02-27T10:22:33.236Z,-6.70
2018-02-27T10:25:01.233Z,-6.50
2018-02-27T10:27:29.288Z,-6.30
2018-02-27T10:29:57.264Z,-6.10
2018-02-27T10:32:25.256Z,-6.10
2018-02-27T10:34:53.542Z,-6.00
2018-02-27T10:37:21.528Z,-6.20
2018-02-27T10:39:49.537Z,-6.30
2018-02-27T10:42:18.288Z,-6.40
2018-02-27T10:44:46.300Z,-6.40
2018-02-27T10:47:14.300Z,-6.20
2018-02-27T10:49:43.073Z,-6.30
2018-02-27T10:52:11.106Z,-6.40
2018-02-27T10:54:39.090Z,-6.10
2018-02-27T10:57:07.088Z,-5.80
2018-02-27T10:59:35.084Z,-5.80
2018-02-27T11:02:06.644Z,-5.80
2018-02-27T11:04:34.633Z,-5.80
2018-02-27T11:07:02.628Z,-5.70
2018-02-27T11:09:30.644Z,-5.60
2018-02-27T11:11:59.417Z,-5.60
2018-02-27T11:14:27.416Z,-5.70
2018-02-27T11:16:55.420Z,-5.50
2018-02-27T11:19:24.910Z,-5.40
2018-02-27T11:21:53.436Z,-5.40
2018-02-27T11:24:22.196Z,-5.20
2018-02-27T11:26:50.189Z,-5.30
2018-02-27T11:29:18.184Z,-5.40
2018-02-27T11:31:46.969Z,-4.80
2018-02-27T11:34:14.952Z,-4.90
2018-02-27T11:36:42.964Z,-4.80
2018-02-27T11:39:12.077Z,-4.70
2018-02-27T11:41:40.847Z,-4.60
2018-02-27T11:44:08.852Z,-4.70
2018-02-27T11:46:37.613Z,-4.20
2018-02-27T11:49:05.617Z,-4.20
2018-02-27T11:51:33.611Z,-4.00
2018-02-27T11:54:02.385Z,-4.30
2018-02-27T11:56:30.398Z,-4.40
2018-02-27T11:58:59.157Z,-4.40
2018-02-27T12:01:27.164Z,-4.40
2018-02-27T12:03:55.164Z,-4.30
2018-02-27T12:06:23.933Z,-3.60
2018-02-27T12:08:52.301Z,-3.60
2018-02-27T12:11:20.309Z,-3.40
2018-02-27T12:13:48.569Z,-3.70
2018-02-27T12:16:16.581Z,-3.70
2018-02-27T12:18:44.591Z,-3.80
2018-02-27T12:21:13.353Z,-3.80
2018-02-27T12:23:42.214Z,-3.80
2018-02-27T12:26:10.221Z,-4.00
2018-02-27T12:28:38.212Z,-3.70
2018-02-27T12:31:06.792Z,-3.50
2018-02-27T12:33:35.087Z,-3.70
2018-02-27T12:36:03.072Z,-3.40
2018-02-27T12:38:31.060Z,-3.50
2018-02-27T12:40:59.078Z,-3.40
2018-02-27T12:43:27.103Z,-3.30
2018-02-27T12:45:55.097Z,-3.00
2018-02-27T12:48:23.106Z,-2.50
2018-02-27T12:50:51.224Z,-2.50
2018-02-27T12:53:19.992Z,-2.60
2018-02-27T12:55:47.988Z,-2.70
2018-02-27T12:58:17.530Z,-2.20
2018-02-27T13:00:45.500Z,-2.20
2018-02-27T13:03:13.499Z,-2.00
2018-02-27T13:05:42.260Z,-2.20
2018-02-27T13:08:11.133Z,-2.20
2018-02-27T13:10:39.122Z,-2.20
2018-02-27T13:13:07.125Z,-1.90
2018-02-27T13:15:35.117Z,-1.70
2018-02-27T13:18:03.108Z,-2.00
2018-02-27T13:20:31.142Z,-2.00
2018-02-27T13:22:59.152Z,-2.30
2018-02-27T13:25:27.192Z,-2.50
2018-02-27T13:27:55.619Z,-2.30
2018-02-27T13:30:23.509Z,-2.00
2018-02-27T13:32:51.513Z,-1.80
2018-02-27T13:35:19.516Z,-2.10
2018-02-27T13:37:48.275Z,-2.20
2018-02-27T13:40:16.292Z,-2.20
2018-02-27T13:42:44.280Z,-2.10
2018-02-27T13:45:13.045Z,-1.80
2018-02-27T13:47:41.083Z,-1.90
2018-02-27T13:50:09.049Z,-1.50
2018-02-27T13:52:37.823Z,-1.60
2018-02-27T13:55:05.817Z,-1.60
2018-02-27T13:57:33.824Z,-1.50
2018-02-27T14:00:01.846Z,-1.70
2018-02-27T14:02:29.845Z,-1.80
2018-02-27T14:04:57.879Z,-1.80
2018-02-27T14:07:25.884Z,-1.80
2018-02-27T14:09:53.895Z,-1.60
2018-02-27T14:12:21.905Z,-1.50
2018-02-27T14:14:50.660Z,-1.30
2018-02-27T14:17:18.663Z,-1.30
2018-02-27T14:19:46.655Z,-0.90
2018-02-27T14:22:14.671Z,-0.80
2018-02-27T14:24:42.676Z,-0.70
2018-02-27T14:27:10.709Z,-0.80
2018-02-27T14:29:38.721Z,-1.30
2018-02-27T14:32:06.725Z,-1.30
2018-02-27T14:34:34.744Z,-1.10
2018-02-27T14:37:02.753Z,-1.40
2018-02-27T14:39:31.528Z,-1.10
2018-02-27T14:41:59.545Z,-1.20
2018-02-27T14:44:28.317Z,-1.90
2018-02-27T14:46:56.319Z,-2.00
2018-02-27T14:49:25.088Z,-2.10
2018-02-27T14:51:53.096Z,-2.20
2018-02-27T14:54:21.868Z,-2.80
2018-02-27T14:56:49.864Z,-2.90
2018-02-27T14:59:17.873Z,-3.20
2018-02-27T15:01:46.634Z,-3.40
2018-02-27T15:04:14.675Z,-3.40
2018-02-27T15:06:42.620Z,-3.40
2018-02-27T15:09:10.632Z,-3.60
2018-02-27T15:11:39.564Z,-3.30
2018-02-27T15:14:07.557Z,-2.80
2018-02-27T15:16:35.572Z,-2.50
2018-02-27T15:19:03.569Z,-2.60
2018-02-27T15:21:32.332Z,-2.60
2018-02-27T15:24:00.349Z,-2.60
2018-02-27T15:26:29.116Z,-2.60
2018-02-27T15:28:57.128Z,-2.60
2018-02-27T15:31:25.892Z,-2.90
2018-02-27T15:33:53.905Z,-2.90
2018-02-27T15:36:21.912Z,-2.70
2018-02-27T15:38:49.907Z,-3.00
2018-02-27T15:41:17.912Z,-2.60
2018-02-27T15:43:46.200Z,-3.00
2018-02-27T15:46:14.212Z,-3.10
2018-02-27T15:48:42.216Z,-3.00
2018-02-27T15:51:10.997Z,-3.30
2018-02-27T15:53:39.017Z,-3.30
2018-02-27T15:56:07.780Z,-3.40
2018-02-27T15:58:35.780Z,-3.50
2018-02-27T16:01:03.772Z,-3.60
2018-02-27T16:03:32.552Z,-3.70
2018-02-27T16:06:00.548Z,-3.70
2018-02-27T16:08:29.333Z,-3.70
2018-02-27T16:10:57.336Z,-3.80
2018-02-27T16:13:26.092Z,-4.10
2018-02-27T16:15:54.121Z,-4.10
2018-02-27T16:18:22.084Z,-4.30
2018-02-27T16:20:50.090Z,-4.40
2018-02-27T16:23:18.885Z,-4.70
2018-02-27T16:25:47.656Z,-4.70
2018-02-27T16:28:15.656Z,-4.80
2018-02-27T16:30:43.657Z,-4.80
2018-02-27T16:33:12.427Z,-4.90
2018-02-27T16:35:40.697Z,-4.90
2018-02-27T16:38:08.696Z,-5.00
2018-02-27T16:40:36.688Z,-5.10
2018-02-27T16:43:04.696Z,-5.20
2018-02-27T16:45:33.504Z,-5.20
2018-02-27T16:48:01.456Z,-5.30
2018-02-27T16:50:29.472Z,-5.20
2018-02-27T16:52:57.476Z,-5.20
2018-02-27T16:55:25.491Z,-5.30
2018-02-27T16:57:53.477Z,-5.40
2018-02-27T17:00:21.477Z,-5.40
2018-02-27T17:02:50.240Z,-5.50
2018-02-27T17:05:18.239Z,-5.60
2018-02-27T17:07:46.228Z,-5.60
2018-02-27T17:10:14.243Z,-5.50
2018-02-27T17:12:43.000Z,-5.50
2018-02-27T17:15:10.989Z,-5.60
2018-02-27T17:17:38.996Z,-5.60
2018-02-27T17:20:07.770Z,-5.70
2018-02-27T17:22:35.777Z,-5.70
2018-02-27T17:25:04.544Z,-5.70
2018-02-27T17:27:32.552Z,-5.70
2018-02-27T17:30:00.599Z,-5.70
2018-02-27T17:32:29.339Z,-5.70
2018-02-27T17:34:57.347Z,-5.70
2018-02-27T17:37:25.346Z,-5.70
2018-02-27T17:39:53.357Z,-5.70
2018-02-27T17:42:21.349Z,-5.80
2018-02-27T17:44:49.361Z,-5.80
2018-02-27T17:47:18.129Z,-5.80
2018-02-27T17:49:46.126Z,-5.80
2018-02-27T17:52:14.703Z,-5.80
2018-02-27T17:54:42.697Z,-5.80
2018-02-27T17:57:10.696Z,-5.80
2018-02-27T17:59:38.696Z,-5.90
2018-02-27T18:02:06.696Z,-5.90
2018-02-27T18:04:34.704Z,-5.90
2018-02-27T18:07:02.689Z,-5.90
2018-02-27T18:09:30.682Z,-6.00
2018-02-27T18:11:58.687Z,-6.10
2018-02-27T18:14:26.696Z,-6.20
2018-02-27T18:16:54.700Z,-6.20
2018-02-27T18:19:22.701Z,-6.10
2018-02-27T18:21:51.718Z,-6.00
2018-02-27T18:24:19.708Z,-6.10
2018-02-27T18:26:47.703Z,-6.00
2018-02-27T18:29:15.703Z,-6.00
2018-02-27T18:31:44.487Z,-6.00
2018-02-27T18:34:12.477Z,-6.00
2018-02-27T18:36:40.476Z,-6.00
2018-02-27T18:39:09.236Z,-6.10
2018-02-27T18:41:37.248Z,-6.10
2018-02-27T18:44:06.072Z,-6.40
2018-02-27T18:46:34.012Z,-6.40
2018-02-27T18:49:02.025Z,-6.50
2018-02-27T18:51:30.781Z,-6.50
2018-02-27T18:53:58.785Z,-6.50
2018-02-27T18:56:26.764Z,-6.40
2018-02-27T18:58:55.696Z,-6.30
2018-02-27T19:01:23.720Z,-6.30
2018-02-27T19:03:51.734Z,-6.40
2018-02-27T19:06:19.732Z,-6.50
2018-02-27T19:08:48.498Z,-6.40
2018-02-27T19:11:16.509Z,-6.50
2018-02-27T19:13:45.229Z,-6.40
2018-02-27T19:16:13.245Z,-6.40
2018-02-27T19:18:41.244Z,-6.40
2018-02-27T19:21:09.248Z,-6.40
2018-02-27T19:23:37.236Z,-6.40
2018-02-27T19:26:05.243Z,-6.40
2018-02-27T19:28:34.026Z,-6.60
2018-02-27T19:31:02.024Z,-4.50
2018-02-27T19:33:30.028Z,-6.50
2018-02-27T19:35:58.054Z,-6.50
2018-02-27T19:38:26.064Z,-6.50
2018-02-27T19:40:54.817Z,-6.60
2018-02-27T19:43:22.853Z,-6.60
2018-02-27T19:45:51.625Z,-6.80
2018-02-27T19:48:19.620Z,-6.90
2018-02-27T19:50:48.450Z,-6.80
2018-02-27T19:53:16.452Z,-6.90
2018-02-27T19:55:44.440Z,-6.90
2018-02-27T19:58:13.297Z,-7.00
2018-02-27T20:00:41.293Z,-7.20
2018-02-27T20:03:10.169Z,-7.30
2018-02-27T20:05:38.152Z,-7.50
2018-02-27T20:08:06.157Z,-7.50
2018-02-27T20:10:34.912Z,-7.50
2018-02-27T20:13:02.920Z,-7.50
2018-02-27T20:15:30.934Z,-7.40
2018-02-27T20:18:04.722Z,-7.40
2018-02-27T20:20:32.901Z,-7.50
2018-02-27T20:23:07.005Z,-7.50
2018-02-27T20:25:35.008Z,-7.50
2018-02-27T20:28:03.001Z,-7.50
2018-02-27T20:30:31.019Z,-7.60
2018-02-27T20:32:59.003Z,-7.60
2018-02-27T20:35:27.020Z,-7.60
2018-02-27T20:37:55.037Z,-7.60
2018-02-27T20:40:23.796Z,-7.80
2018-02-27T20:42:51.806Z,-7.90
2018-02-27T20:45:19.793Z,-7.90
2018-02-27T20:47:47.792Z,-7.90
2018-02-27T20:50:16.549Z,-8.20
2018-02-27T20:52:44.553Z,-8.20
2018-02-27T20:55:12.560Z,-8.20
2018-02-27T20:57:41.317Z,-8.40
2018-02-27T21:00:09.324Z,-8.40
2018-02-27T21:02:37.314Z,-8.40
2018-02-27T21:05:06.082Z,-8.40
2018-02-27T21:07:34.073Z,-8.50
2018-02-27T21:10:02.077Z,-8.50
2018-02-27T21:12:30.076Z,-8.50
2018-02-27T21:14:58.852Z,-8.50
2018-02-27T21:17:26.852Z,-8.60
2018-02-27T21:19:54.876Z,-6.60
2018-02-27T21:22:22.877Z,-8.70
2018-02-27T21:24:50.881Z,-8.90
2018-02-27T21:27:18.872Z,-9.10
2018-02-27T21:29:47.654Z,-9.10
2018-02-27T21:32:15.648Z,-9.20
2018-02-27T21:34:43.667Z,-9.10
2018-02-27T21:37:11.658Z,-9.00
2018-02-27T21:39:39.656Z,-9.00
2018-02-27T21:42:07.661Z,-9.00
2018-02-27T21:44:35.668Z,-9.00
2018-02-27T21:47:04.448Z,-8.90
2018-02-27T21:49:32.446Z,-8.90
2018-02-27T21:52:00.449Z,-8.90
2018-02-27T21:54:29.213Z,-8.90
2018-02-27T21:56:57.212Z,-9.00
2018-02-27T21:59:25.217Z,-9.10
2018-02-27T22:01:53.981Z,-9.10
2018-02-27T22:04:21.990Z,-9.20
2018-02-27T22:06:50.736Z,-9.20
2018-02-27T22:09:18.745Z,-9.30
2018-02-27T22:11:46.736Z,-9.30
2018-02-27T22:14:14.746Z,-9.20
2018-02-27T22:16:43.525Z,-9.10
2018-02-27T22:19:11.514Z,-9.20
2018-02-27T22:21:40.292Z,-9.20
2018-02-27T22:24:09.133Z,-9.30
2018-02-27T22:26:37.908Z,-9.50
2018-02-27T22:29:05.908Z,-9.60
2018-02-27T22:31:34.677Z,-9.50
2018-02-27T22:34:02.673Z,-9.60
2018-02-27T22:36:30.677Z,-9.50
2018-02-27T22:38:59.445Z,-9.70
2018-02-27T22:41:27.436Z,-9.70
2018-02-27T22:43:55.446Z,-9.70
2018-02-27T22:46:24.212Z,-9.30
2018-02-27T22:48:52.211Z,-9.70
2018-02-27T22:51:20.368Z,-9.60
2018-02-27T22:53:48.360Z,-9.70
2018-02-27T22:56:16.364Z,-9.70
2018-02-27T22:58:44.371Z,-9.80
2018-02-27T23:01:12.379Z,-9.90
2018-02-27T23:03:40.376Z,-10.10
2018-02-27T23:06:08.388Z,-10.00
2018-02-27T23:08:36.396Z,-10.00
2018-02-27T23:11:05.165Z,-10.00
2018-02-27T23:13:33.169Z,-10.10
2018-02-27T23:16:01.936Z,-10.20
2018-02-27T23:18:29.929Z,-10.20
2018-02-27T23:20:57.939Z,-10.10
2018-02-27T23:23:26.705Z,-10.10
2018-02-27T23:26:02.950Z,-10.20
2018-02-27T23:28:31.963Z,-10.20
2018-02-27T23:31:00.153Z,-10.20
2018-02-27T23:33:30.655Z,-10.30
2018-02-27T23:35:59.413Z,-10.40
2018-02-27T23:38:27.436Z,-10.50
2018-02-27T23:40:56.192Z,-10.20
2018-02-27T23:43:24.204Z,-10.30
2018-02-27T23:45:52.980Z,-10.40
2018-02-27T23:48:20.984Z,-10.40
2018-02-27T23:50:49.760Z,-10.30
2018-02-27T23:53:17.756Z,-10.30
2018-02-27T23:55:45.768Z,-10.30
2018-02-27T23:58:14.539Z,-10.50
